AEE3K LTFM-LGAV
Flight info
| Callsign | AEE3K |
|---|---|
| Flight time | N/A |
| Altitude | 38000 |
| Route | IVGUS1D/35L IVGUS UY226 BIG UN604 OGSIL OGSIL1Q |
| Aircraft | A320/M-V/N |
Departure
| Time | 2026-05-01 12:57 |
|---|---|
| Airport | İstanbul Airport (LTFM) |
Arrival
| Time | N/A |
|---|---|
| Airport | Athens Eleftherios Venizelos International Airport (LGAV) |
| Time | Latitude | Longitude | Altitude | Speed | Heading |
|---|---|---|---|---|---|
| 2026-05-01 12:36 | 41.26621 | 28.71988 | 176 ft | 0 kts | 360° |
| 2026-05-01 12:48 | 41.26618 | 28.71988 | 176 ft | 1 kts | 360° |
| 2026-05-01 12:48 | 41.26608 | 28.71988 | 176 ft | 2 kts | 360° |
| 2026-05-01 12:48 | 41.26592 | 28.71987 | 176 ft | 2 kts | 1° |
| 2026-05-01 12:49 | 41.26576 | 28.71987 | 176 ft | 2 kts | 0° |
| 2026-05-01 12:49 | 41.26561 | 28.71987 | 176 ft | 2 kts | 0° |
| 2026-05-01 12:49 | 41.26545 | 28.71987 | 176 ft | 2 kts | 6° |
| 2026-05-01 12:49 | 41.26530 | 28.71982 | 176 ft | 2 kts | 33° |
| 2026-05-01 12:50 | 41.26518 | 28.71968 | 176 ft | 2 kts | 56° |
| 2026-05-01 12:50 | 41.26510 | 28.71950 | 176 ft | 2 kts | 86° |
| 2026-05-01 12:50 | 41.26510 | 28.71943 | 176 ft | 0 kts | 90° |
| 2026-05-01 12:52 | 41.26510 | 28.71954 | 176 ft | 3 kts | 90° |
| 2026-05-01 12:52 | 41.26510 | 28.72002 | 176 ft | 7 kts | 90° |
| 2026-05-01 12:53 | 41.26511 | 28.72176 | 176 ft | 0 kts | 89° |
| 2026-05-01 12:53 | 41.26511 | 28.72183 | 176 ft | 2 kts | 89° |
| 2026-05-01 12:53 | 41.26511 | 28.72224 | 176 ft | 6 kts | 89° |
| 2026-05-01 12:54 | 41.26522 | 28.72295 | 176 ft | 9 kts | 70° |
| 2026-05-01 12:54 | 41.26542 | 28.72374 | 177 ft | 0 kts | 71° |
| 2026-05-01 12:55 | 41.26543 | 28.72377 | 177 ft | 2 kts | 71° |
| 2026-05-01 12:56 | 41.26551 | 28.72409 | 177 ft | 8 kts | 71° |
| 2026-05-01 12:56 | 41.26576 | 28.72503 | 178 ft | 8 kts | 60° |
| 2026-05-01 12:56 | 41.26598 | 28.72515 | 178 ft | 0 kts | 352° |
| 2026-05-01 12:56 | 41.26619 | 28.72512 | 178 ft | 20 kts | 354° |
| 2026-05-01 12:57 | 41.27007 | 28.72506 | 175 ft | 89 kts | 359° |
| 2026-05-01 12:57 | 41.28933 | 28.72452 | 333 ft | 168 kts | 358° |
| 2026-05-01 12:57 | 41.30075 | 28.72428 | 982 ft | 163 kts | 359° |
| 2026-05-01 12:58 | 41.31206 | 28.72411 | 1650 ft | 161 kts | 359° |
| 2026-05-01 12:58 | 41.32368 | 28.72398 | 2070 ft | 177 kts | 360° |
| 2026-05-01 12:58 | 41.33662 | 28.72438 | 2422 ft | 194 kts | 1° |
| 2026-05-01 12:59 | 41.36628 | 28.72336 | 3009 ft | 236 kts | 341° |
| 2026-05-01 12:59 | 41.38058 | 28.71107 | 3494 ft | 256 kts | 310° |
| 2026-05-01 12:59 | 41.38873 | 28.66573 | 5393 ft | 265 kts | 262° |
| 2026-05-01 13:00 | 41.38304 | 28.61632 | 7382 ft | 273 kts | 263° |
| 2026-05-01 13:00 | 41.38018 | 28.59130 | 8339 ft | 277 kts | 252° |
| 2026-05-01 13:01 | 41.35457 | 28.55395 | 10166 ft | 287 kts | 201° |
| 2026-05-01 13:01 | 41.33433 | 28.54882 | 10682 ft | 308 kts | 182° |
| 2026-05-01 13:01 | 41.28863 | 28.55056 | 11675 ft | 342 kts | 177° |
| 2026-05-01 13:02 | 41.26504 | 28.55142 | 12527 ft | 345 kts | 182° |
| 2026-05-01 13:07 | 40.80031 | 28.20631 | 25405 ft | 419 kts | 230° |
| 2026-05-01 13:07 | 40.78118 | 28.17684 | 25880 ft | 422 kts | 229° |
| 2026-05-01 13:07 | 40.76192 | 28.14722 | 26343 ft | 425 kts | 229° |
| 2026-05-01 13:08 | 40.74288 | 28.11798 | 26782 ft | 428 kts | 229° |
| 2026-05-01 13:08 | 40.72331 | 28.08794 | 27215 ft | 431 kts | 229° |
| 2026-05-01 13:08 | 40.70362 | 28.05774 | 27630 ft | 434 kts | 229° |
| 2026-05-01 13:08 | 40.68381 | 28.02740 | 28030 ft | 436 kts | 229° |
| 2026-05-01 13:09 | 40.66407 | 27.99719 | 28408 ft | 439 kts | 229° |
| 2026-05-01 13:09 | 40.64400 | 27.96649 | 28773 ft | 442 kts | 229° |
| 2026-05-01 13:09 | 40.62411 | 27.93612 | 29131 ft | 444 kts | 229° |
| 2026-05-01 13:09 | 40.60373 | 27.90502 | 29473 ft | 446 kts | 229° |
| 2026-05-01 13:10 | 40.58356 | 27.87428 | 29808 ft | 449 kts | 229° |
| 2026-05-01 13:10 | 40.56301 | 27.84298 | 30144 ft | 451 kts | 229° |
| 2026-05-01 13:10 | 40.54233 | 27.81152 | 30480 ft | 454 kts | 229° |
| 2026-05-01 13:10 | 40.52159 | 27.78001 | 30814 ft | 456 kts | 229° |
| 2026-05-01 13:11 | 40.50096 | 27.74869 | 31108 ft | 459 kts | 229° |
| 2026-05-01 13:11 | 40.47994 | 27.71680 | 31438 ft | 461 kts | 229° |
| 2026-05-01 13:11 | 40.45919 | 27.68538 | 31949 ft | 457 kts | 229° |
| 2026-05-01 13:11 | 40.43824 | 27.65366 | 32412 ft | 456 kts | 229° |
| 2026-05-01 13:12 | 40.41744 | 27.62223 | 32802 ft | 455 kts | 229° |
| 2026-05-01 13:12 | 40.39688 | 27.59118 | 33180 ft | 454 kts | 229° |
| 2026-05-01 13:12 | 40.37603 | 27.55971 | 33555 ft | 454 kts | 229° |
| 2026-05-01 13:12 | 40.35534 | 27.52853 | 33915 ft | 453 kts | 229° |
| 2026-05-01 13:13 | 40.33484 | 27.49767 | 34259 ft | 452 kts | 229° |
| 2026-05-01 13:13 | 40.31412 | 27.46650 | 34596 ft | 451 kts | 229° |
| 2026-05-01 13:13 | 40.29345 | 27.43544 | 34922 ft | 451 kts | 229° |
| 2026-05-01 13:13 | 40.27297 | 27.40470 | 35223 ft | 450 kts | 229° |
| 2026-05-01 13:14 | 40.25230 | 27.37370 | 35517 ft | 450 kts | 229° |
| 2026-05-01 13:14 | 40.23193 | 27.34318 | 35803 ft | 449 kts | 229° |
| 2026-05-01 13:14 | 40.21124 | 27.31223 | 36093 ft | 449 kts | 229° |
| 2026-05-01 13:14 | 40.18997 | 27.28279 | 36326 ft | 449 kts | 223° |
| 2026-05-01 13:15 | 40.16606 | 27.25620 | 36533 ft | 450 kts | 217° |
| 2026-05-01 13:15 | 40.14048 | 27.23255 | 36731 ft | 451 kts | 215° |
| 2026-05-01 13:15 | 40.11467 | 27.20897 | 37009 ft | 449 kts | 215° |
| 2026-05-01 13:15 | 40.08931 | 27.18570 | 37201 ft | 450 kts | 215° |
| 2026-05-01 13:16 | 40.06362 | 27.16210 | 37460 ft | 449 kts | 215° |
| 2026-05-01 13:16 | 40.03826 | 27.13881 | 37643 ft | 449 kts | 215° |
| 2026-05-01 13:16 | 40.01260 | 27.11527 | 37823 ft | 450 kts | 215° |
| 2026-05-01 13:17 | 39.93594 | 27.04510 | 38000 ft | 450 kts | 215° |
| 2026-05-01 13:17 | 39.91025 | 27.02163 | 38000 ft | 451 kts | 215° |
| 2026-05-01 13:18 | 39.83349 | 26.95164 | 38001 ft | 450 kts | 215° |
| 2026-05-01 13:18 | 39.78207 | 26.90486 | 38002 ft | 456 kts | 215° |
| 2026-05-01 13:19 | 39.72928 | 26.85694 | 38000 ft | 465 kts | 215° |
| 2026-05-01 13:20 | 39.64958 | 26.78480 | 38000 ft | 465 kts | 215° |
| 2026-05-01 13:20 | 39.59643 | 26.73679 | 37998 ft | 462 kts | 215° |
| 2026-05-01 13:21 | 39.51769 | 26.66584 | 38000 ft | 458 kts | 215° |
| 2026-05-01 13:21 | 39.46546 | 26.61888 | 38001 ft | 458 kts | 215° |
| 2026-05-01 13:22 | 39.41310 | 26.57190 | 38001 ft | 458 kts | 215° |
| 2026-05-01 13:22 | 39.36060 | 26.52488 | 38000 ft | 458 kts | 215° |
| 2026-05-01 13:23 | 39.30690 | 26.48075 | 38000 ft | 458 kts | 210° |
| 2026-05-01 13:23 | 39.25223 | 26.43884 | 37999 ft | 458 kts | 216° |
| 2026-05-01 13:24 | 39.20526 | 26.38382 | 37980 ft | 458 kts | 230° |
| 2026-05-01 13:25 | 39.14555 | 26.28781 | 37997 ft | 458 kts | 231° |
| 2026-05-01 13:25 | 39.10553 | 26.22376 | 37995 ft | 458 kts | 231° |
| 2026-05-01 13:26 | 39.06564 | 26.16010 | 38000 ft | 459 kts | 231° |
| 2026-05-01 13:26 | 39.02537 | 26.09595 | 38006 ft | 459 kts | 231° |
| 2026-05-01 13:27 | 38.98544 | 26.03246 | 38007 ft | 459 kts | 231° |
| 2026-05-01 13:27 | 38.92526 | 25.93702 | 38006 ft | 459 kts | 231° |
| 2026-05-01 13:28 | 38.86474 | 25.84130 | 38005 ft | 458 kts | 231° |
| 2026-05-01 13:29 | 38.78431 | 25.71456 | 38004 ft | 458 kts | 231° |
| 2026-05-01 13:31 | 38.66344 | 25.52502 | 38002 ft | 458 kts | 231° |
| 2026-05-01 13:32 | 38.56268 | 25.36786 | 38000 ft | 458 kts | 231° |
| 2026-05-01 13:33 | 38.46136 | 25.21060 | 37762 ft | 461 kts | 231° |
| 2026-05-01 13:34 | 38.42028 | 25.14706 | 37413 ft | 465 kts | 231° |
| 2026-05-01 13:34 | 38.37911 | 25.08348 | 36734 ft | 463 kts | 230° |
| 2026-05-01 13:35 | 38.33838 | 25.02071 | 35864 ft | 457 kts | 230° |
| 2026-05-01 13:35 | 38.31832 | 24.98985 | 35713 ft | 444 kts | 230° |
| 2026-05-01 13:35 | 38.27935 | 24.92996 | 34696 ft | 436 kts | 230° |
| 2026-05-01 13:36 | 38.26004 | 24.90031 | 34166 ft | 432 kts | 230° |
| 2026-05-01 13:36 | 38.24108 | 24.87125 | 33652 ft | 429 kts | 230° |
| 2026-05-01 13:36 | 38.20334 | 24.81346 | 32618 ft | 422 kts | 230° |
| 2026-05-01 13:37 | 38.18449 | 24.78483 | 32119 ft | 418 kts | 228° |
| 2026-05-01 13:37 | 38.16402 | 24.75863 | 31588 ft | 415 kts | 221° |
| 2026-05-01 13:37 | 38.14151 | 24.73606 | 31083 ft | 411 kts | 214° |
| 2026-05-01 13:37 | 38.11746 | 24.71707 | 30570 ft | 408 kts | 210° |
| 2026-05-01 13:38 | 38.06875 | 24.68063 | 29562 ft | 402 kts | 211° |
| 2026-05-01 13:38 | 38.04475 | 24.66257 | 29073 ft | 398 kts | 211° |
| 2026-05-01 13:38 | 38.02123 | 24.64488 | 28577 ft | 395 kts | 211° |
| 2026-05-01 13:39 | 37.99761 | 24.62712 | 28081 ft | 392 kts | 211° |
| 2026-05-01 13:39 | 37.97414 | 24.60950 | 27591 ft | 389 kts | 211° |
| 2026-05-01 13:39 | 37.95124 | 24.59138 | 27080 ft | 386 kts | 219° |
| 2026-05-01 13:39 | 37.93302 | 24.56711 | 26570 ft | 382 kts | 237° |
| 2026-05-01 13:40 | 37.92184 | 24.53672 | 26040 ft | 379 kts | 256° |
| 2026-05-01 13:40 | 37.91912 | 24.50405 | 25532 ft | 376 kts | 275° |
| 2026-05-01 13:40 | 37.92502 | 24.47228 | 25023 ft | 373 kts | 294° |
| 2026-05-01 13:40 | 37.93909 | 24.44480 | 24513 ft | 370 kts | 314° |
| 2026-05-01 13:41 | 37.95886 | 24.42454 | 24015 ft | 368 kts | 325° |
| 2026-05-01 13:41 | 37.97984 | 24.40609 | 23533 ft | 365 kts | 325° |
| 2026-05-01 13:41 | 38.00052 | 24.38797 | 23071 ft | 362 kts | 325° |
| 2026-05-01 13:41 | 38.02130 | 24.36976 | 22583 ft | 360 kts | 325° |
| 2026-05-01 13:42 | 38.04196 | 24.35165 | 22103 ft | 357 kts | 325° |
| 2026-05-01 13:42 | 38.06219 | 24.33392 | 21631 ft | 355 kts | 325° |
| 2026-05-01 13:42 | 38.08257 | 24.31605 | 21166 ft | 353 kts | 325° |
| 2026-05-01 13:42 | 38.10259 | 24.29849 | 20674 ft | 352 kts | 325° |
| 2026-05-01 13:43 | 38.12278 | 24.28078 | 20259 ft | 348 kts | 325° |
| 2026-05-01 13:43 | 38.14244 | 24.26353 | 19783 ft | 346 kts | 325° |
| 2026-05-01 13:43 | 38.16227 | 24.24613 | 19354 ft | 343 kts | 325° |
| 2026-05-01 13:43 | 38.18188 | 24.22892 | 18952 ft | 340 kts | 325° |
| 2026-05-01 13:44 | 38.19988 | 24.21025 | 18494 ft | 337 kts | 310° |
| 2026-05-01 13:44 | 38.21160 | 24.18468 | 18020 ft | 334 kts | 288° |
| 2026-05-01 13:44 | 38.21475 | 24.15554 | 17562 ft | 331 kts | 265° |
| 2026-05-01 13:44 | 38.20912 | 24.12771 | 17104 ft | 329 kts | 246° |
| 2026-05-01 13:45 | 38.19956 | 24.10122 | 16665 ft | 327 kts | 245° |
| 2026-05-01 13:45 | 38.18994 | 24.07500 | 16227 ft | 325 kts | 245° |
| 2026-05-01 13:45 | 38.18047 | 24.04921 | 15801 ft | 323 kts | 245° |
| 2026-05-01 13:45 | 38.17093 | 24.02325 | 15369 ft | 321 kts | 245° |
| 2026-05-01 13:46 | 38.16152 | 23.99765 | 14952 ft | 319 kts | 245° |
| 2026-05-01 13:46 | 38.15211 | 23.97202 | 14488 ft | 318 kts | 245° |
| 2026-05-01 13:46 | 38.14289 | 23.94696 | 14097 ft | 315 kts | 245° |
| 2026-05-01 13:46 | 38.13360 | 23.92176 | 13676 ft | 313 kts | 243° |
| 2026-05-01 13:47 | 38.12061 | 23.89977 | 13203 ft | 313 kts | 220° |